Time;durP1;ratioP1;P1;durP2;ratioP2;P2;SDS_P1;SDS_P2;PMS_P1;PMS_P2;Temp;Humidity;BMP_temperature;BMP_pressure;BME280_temperature;BME280_humidity;BME280_pressure;Samples;Min_cycle;Max_cycle;Signal;HPM_P1;HPM_P2
2023/01/16 00:01:30;;;;;;;7.25;6.10;;;;;;;;;;5013034;28;20046;-68
2023/01/16 00:03:55;;;;;;;10.93;7.50;;;;;;;;;;5013447;28;20034;-68
2023/01/16 00:06:21;;;;;;;17.15;9.65;;;;;;;;;;5013133;28;20064;-68
2023/01/16 00:08:48;;;;;;;14.77;10.30;;;;;;;;;;4996004;28;20064;-68
2023/01/16 00:11:13;;;;;;;11.15;8.57;;;;;;;;;;5013226;28;20046;-68
2023/01/16 00:13:39;;;;;;;7.07;6.28;;;;;;;;;;4995811;28;20026;-68
2023/01/16 00:16:05;;;;;;;6.93;6.22;;;;;;;;;;5013190;28;20041;-68
2023/01/16 00:18:30;;;;;;;6.03;5.43;;;;;;;;;;5013165;28;20025;-69
2023/01/16 00:20:56;;;;;;;6.07;5.40;;;;;;;;;;5012941;28;20536;-68
2023/01/16 00:23:21;;;;;;;5.93;5.25;;;;;;;;;;5012731;28;20113;-68
2023/01/16 00:25:46;;;;;;;6.13;5.57;;;;;;;;;;5012845;28;20076;-67
2023/01/16 00:28:12;;;;;;;6.13;5.53;;;;;;;;;;5013108;28;20042;-69
2023/01/16 00:30:38;;;;;;;9.50;6.13;;;;;;;;;;5012858;28;20064;-68
2023/01/16 00:33:04;;;;;;;6.43;5.82;;;;;;;;;;5012866;28;20065;-68
2023/01/16 00:35:29;;;;;;;7.78;5.97;;;;;;;;;;4999301;28;20125;-68
2023/01/16 00:37:55;;;;;;;6.47;5.88;;;;;;;;;;5017021;28;20397;-69
2023/01/16 00:40:20;;;;;;;5.93;5.32;;;;;;;;;;5016414;28;20421;-69
2023/01/16 00:42:45;;;;;;;6.53;5.93;;;;;;;;;;5016426;28;20116;-70
2023/01/16 00:45:11;;;;;;;6.30;5.70;;;;;;;;;;4982739;28;20049;-68
2023/01/16 00:47:36;;;;;;;7.03;5.82;;;;;;;;;;5016733;28;20049;-71
2023/01/16 00:50:02;;;;;;;6.53;5.93;;;;;;;;;;5015578;28;20042;-72
2023/01/16 00:52:29;;;;;;;6.28;5.68;;;;;;;;;;5016718;28;20497;-73
2023/01/16 00:54:54;;;;;;;8.55;6.30;;;;;;;;;;4999152;28;20034;-73
2023/01/16 00:57:21;;;;;;;7.90;6.40;;;;;;;;;;5016747;28;20493;-73
2023/01/16 00:59:46;;;;;;;8.57;6.53;;;;;;;;;;5016697;28;20037;-72
2023/01/16 01:02:11;;;;;;;7.88;6.70;;;;;;;;;;5016530;28;20054;-71
2023/01/16 01:04:37;;;;;;;6.90;5.47;;;;;;;;;;5016280;28;20025;-71
2023/01/16 01:07:03;;;;;;;6.78;6.07;;;;;;;;;;5016534;28;20034;-71
2023/01/16 01:09:28;;;;;;;12.02;5.78;;;;;;;;;;5016337;28;20113;-71
2023/01/16 01:11:55;;;;;;;6.22;5.43;;;;;;;;;;5016410;28;20130;-71
2023/01/16 01:14:20;;;;;;;5.65;5.25;;;;;;;;;;5015211;28;20053;-71
2023/01/16 01:16:46;;;;;;;6.53;5.88;;;;;;;;;;5016371;28;20042;-71
2023/01/16 01:19:11;;;;;;;8.02;5.78;;;;;;;;;;5016267;28;20076;-71
2023/01/16 01:21:36;;;;;;;7.40;5.63;;;;;;;;;;5016126;28;20045;-71
2023/01/16 01:24:02;;;;;;;7.15;6.20;;;;;;;;;;5016205;28;20061;-71
2023/01/16 01:26:27;;;;;;;7.40;6.63;;;;;;;;;;4998457;28;20030;-73
2023/01/16 01:28:53;;;;;;;7.60;6.80;;;;;;;;;;5016276;28;20079;-72
2023/01/16 01:31:18;;;;;;;7.38;6.68;;;;;;;;;;4982020;28;20030;-72
2023/01/16 01:33:43;;;;;;;11.15;8.07;;;;;;;;;;5015876;28;20061;-72
2023/01/16 01:36:09;;;;;;;8.20;7.13;;;;;;;;;;4998857;28;20132;-73
2023/01/16 01:38:34;;;;;;;9.00;6.85;;;;;;;;;;5016101;28;20049;-73
2023/01/16 01:40:59;;;;;;;8.93;7.40;;;;;;;;;;5015646;28;20034;-72
2023/01/16 01:43:42;;;;;;;7.90;6.88;;;;;;;;;;5015745;28;20548;-72
2023/01/16 01:46:07;;;;;;;7.78;6.85;;;;;;;;;;5015009;28;20470;-73
2023/01/16 01:48:39;;;;;;;9.80;7.85;;;;;;;;;;5015644;28;20053;-73
2023/01/16 01:51:06;;;;;;;8.35;6.18;;;;;;;;;;5015714;28;20049;-73
2023/01/16 01:53:36;;;;;;;7.90;7.10;;;;;;;;;;5015765;28;20425;-73
2023/01/16 01:56:02;;;;;;;;;;;;;;;;;;5015993;28;20041;-72
2023/01/16 01:58:28;;;;;;;9.98;8.50;;;;;;;;;;4997803;28;20051;-72
2023/01/16 02:00:55;;;;;;;10.80;8.38;;;;;;;;;;4997920;28;20121;-71
2023/01/16 02:03:27;;;;;;;11.35;8.82;;;;;;;;;;5015179;28;20046;-71
2023/01/16 02:05:55;;;;;;;13.85;9.80;;;;;;;;;;5015039;28;20184;-71
2023/01/16 02:08:22;;;;;;;10.07;8.35;;;;;;;;;;5015058;28;20037;-71
2023/01/16 02:10:50;;;;;;;10.95;7.85;;;;;;;;;;5015453;28;20117;-73
2023/01/16 02:13:15;;;;;;;11.27;8.68;;;;;;;;;;4997719;28;20049;-72
2023/01/16 02:19:14;;;;;;;14.38;10.45;;;;;;;;;;5015151;28;20099;-72
2023/01/16 02:21:21;;;;;;;18.90;13.00;;;;;;;;;;5018730;28;20045;-66
2023/01/16 02:24:05;;;;;;;18.13;12.60;;;;;;;;;;5018340;28;20037;-67
2023/01/16 02:26:30;;;;;;;19.48;14.80;;;;;;;;;;5036150;28;20037;-67
2023/01/16 02:29:14;;;;;;;21.95;15.05;;;;;;;;;;5036024;28;20497;-67
2023/01/16 02:31:41;;;;;;;24.67;16.65;;;;;;;;;;5034932;28;20095;-67
2023/01/16 02:34:06;;;;;;;25.67;16.27;;;;;;;;;;5035906;28;20041;-67
2023/01/16 02:36:38;;;;;;;26.88;16.17;;;;;;;;;;5035720;28;20472;-67
2023/01/16 02:39:18;;;;;;;24.95;15.68;;;;;;;;;;5035478;28;20037;-67
2023/01/16 02:42:01;;;;;;;24.65;15.70;;;;;;;;;;5017758;28;20087;-67
2023/01/16 02:44:40;;;;;;;23.10;14.73;;;;;;;;;;5016092;28;20137;-67
2023/01/16 02:47:24;;;;;;;24.17;15.10;;;;;;;;;;5014413;28;20030;-67
2023/01/16 02:49:58;;;;;;;20.88;15.00;;;;;;;;;;5015247;28;20057;-67
2023/01/16 02:52:27;;;;;;;18.80;13.13;;;;;;;;;;5015343;28;20045;-67
2023/01/16 02:54:59;;;;;;;17.42;11.52;;;;;;;;;;5014394;28;20104;-67
2023/01/16 02:57:27;;;;;;;14.27;10.50;;;;;;;;;;4996639;28;20038;-67
2023/01/16 02:59:53;;;;;;;15.25;10.90;;;;;;;;;;5015280;28;20050;-67
2023/01/16 03:02:18;;;;;;;21.80;13.85;;;;;;;;;;5014129;28;20474;-68
2023/01/16 03:04:47;;;;;;;15.45;9.98;;;;;;;;;;5015655;28;20113;-68
2023/01/16 03:07:19;;;;;;;21.77;14.05;;;;;;;;;;5015650;28;20018;-68
2023/01/16 03:10:00;;;;;;;17.52;12.52;;;;;;;;;;4997692;28;20378;-68
2023/01/16 03:12:48;;;;;;;18.20;10.57;;;;;;;;;;5015417;28;20363;-68
2023/01/16 03:15:17;;;;;;;13.55;10.30;;;;;;;;;;5014891;28;20042;-68
2023/01/16 03:17:48;;;;;;;15.32;10.75;;;;;;;;;;5014639;28;20485;-68
2023/01/16 03:20:25;;;;;;;14.27;10.20;;;;;;;;;;5014860;28;20049;-67
2023/01/16 03:22:54;;;;;;;15.98;11.85;;;;;;;;;;5014872;28;20120;-68
2023/01/16 03:25:32;;;;;;;15.38;11.15;;;;;;;;;;4996503;28;20125;-61
2023/01/16 03:28:20;;;;;;;14.55;10.60;;;;;;;;;;5011755;28;20030;-61
2023/01/16 03:30:54;;;;;;;10.63;8.65;;;;;;;;;;5014220;28;20041;-62
2023/01/16 03:33:26;;;;;;;12.38;9.13;;;;;;;;;;5014197;28;20050;-61
2023/01/16 03:35:51;;;;;;;14.13;9.57;;;;;;;;;;4980328;28;20437;-61
2023/01/16 03:38:18;;;;;;;10.63;8.52;;;;;;;;;;5014122;28;20033;-61
2023/01/16 03:40:45;;;;;;;11.95;7.82;;;;;;;;;;4996410;28;20088;-61
2023/01/16 03:43:27;;;;;;;15.95;9.77;;;;;;;;;;5013997;28;20042;-61
2023/01/16 03:45:55;;;;;;;19.63;10.82;;;;;;;;;;5013989;28;20033;-61
2023/01/16 03:48:24;;;;;;;20.95;11.57;;;;;;;;;;5013890;28;20046;-61
2023/01/16 03:50:51;;;;;;;18.45;10.95;;;;;;;;;;5013920;28;20072;-61
2023/01/16 03:53:19;;;;;;;16.65;10.10;;;;;;;;;;5013878;28;20510;-61
2023/01/16 03:55:50;;;;;;;15.27;9.88;;;;;;;;;;5013823;28;20061;-62
2023/01/16 03:58:24;;;;;;;16.58;9.02;;;;;;;;;;5013860;28;20398;-61
2023/01/16 04:01:13;;;;;;;11.82;8.80;;;;;;;;;;4996312;28;20129;-61
2023/01/16 04:03:40;;;;;;;12.23;8.77;;;;;;;;;;4976822;28;20046;-61
2023/01/16 04:06:14;;;;;;;11.65;8.75;;;;;;;;;;5013600;28;20042;-61
2023/01/16 04:08:41;;;;;;;9.77;7.95;;;;;;;;;;4995769;28;20132;-61
2023/01/16 04:11:08;;;;;;;11.30;8.27;;;;;;;;;;5013665;28;20474;-61
2023/01/16 04:13:35;;;;;;;10.45;8.50;;;;;;;;;;4995975;28;20084;-60
2023/01/16 04:16:02;;;;;;;9.65;8.35;;;;;;;;;;5013527;28;20034;-61
2023/01/16 04:18:30;;;;;;;8.02;7.20;;;;;;;;;;5013522;28;20038;-61
2023/01/16 04:20:56;;;;;;;8.18;6.93;;;;;;;;;;5013521;28;20038;-61
2023/01/16 04:23:21;;;;;;;7.90;6.60;;;;;;;;;;5013431;28;20046;-61
2023/01/16 04:25:46;;;;;;;8.52;6.80;;;;;;;;;;5013445;28;20034;-61
2023/01/16 04:28:12;;;;;;;8.57;7.25;;;;;;;;;;5013378;28;20034;-61
2023/01/16 04:30:37;;;;;;;8.93;7.40;;;;;;;;;;5013445;28;20029;-62
2023/01/16 04:33:03;;;;;;;7.20;6.50;;;;;;;;;;5013353;28;20061;-61
2023/01/16 04:35:29;;;;;;;7.95;6.57;;;;;;;;;;5013973;28;20034;-61
2023/01/16 04:37:54;;;;;;;7.30;6.60;;;;;;;;;;5013340;28;20541;-61
2023/01/16 04:40:19;;;;;;;6.32;5.72;;;;;;;;;;5013317;28;20046;-61
2023/01/16 04:42:44;;;;;;;6.20;5.40;;;;;;;;;;4995689;28;20052;-62
2023/01/16 04:45:10;;;;;;;7.35;6.53;;;;;;;;;;5013266;28;20120;-61
2023/01/16 04:47:35;;;;;;;11.63;8.32;;;;;;;;;;4995513;28;20034;-62
2023/01/16 04:50:01;;;;;;;9.32;8.35;;;;;;;;;;5013249;28;20048;-61
2023/01/16 04:52:26;;;;;;;10.07;7.90;;;;;;;;;;5013221;28;20061;-62
2023/01/16 04:54:51;;;;;;;9.52;7.30;;;;;;;;;;5013202;28;20030;-61
2023/01/16 04:57:16;;;;;;;8.23;6.53;;;;;;;;;;5013146;28;20045;-61
2023/01/16 04:59:42;;;;;;;8.32;5.50;;;;;;;;;;5013196;28;20037;-62
2023/01/16 05:02:07;;;;;;;5.60;5.10;;;;;;;;;;5013041;28;20047;-62
2023/01/16 05:04:32;;;;;;;9.00;5.75;;;;;;;;;;5013080;28;20393;-61
2023/01/16 05:06:58;;;;;;;5.80;5.30;;;;;;;;;;5013156;28;20033;-61
2023/01/16 05:09:23;;;;;;;10.95;7.40;;;;;;;;;;5013346;28;20030;-61
2023/01/16 05:11:48;;;;;;;8.80;6.70;;;;;;;;;;4995915;28;20053;-61
2023/01/16 05:14:13;;;;;;;9.65;7.18;;;;;;;;;;5013541;28;20048;-61
2023/01/16 05:16:41;;;;;;;7.82;6.47;;;;;;;;;;5013324;28;20037;-61
2023/01/16 05:19:07;;;;;;;7.10;6.00;;;;;;;;;;5013273;28;20081;-61
2023/01/16 05:21:32;;;;;;;7.68;6.45;;;;;;;;;;5015294;28;20120;-61
2023/01/16 05:23:57;;;;;;;8.05;5.85;;;;;;;;;;5017000;28;20029;-61
2023/01/16 05:26:23;;;;;;;7.85;6.05;;;;;;;;;;4999363;28;20058;-61
2023/01/16 05:28:49;;;;;;;6.55;5.78;;;;;;;;;;5016867;28;20033;-62
2023/01/16 05:31:14;;;;;;;5.90;5.30;;;;;;;;;;5016918;28;20049;-61
2023/01/16 05:33:40;;;;;;;8.20;6.20;;;;;;;;;;5016750;28;20065;-61
2023/01/16 05:36:05;;;;;;;6.32;5.72;;;;;;;;;;5016717;28;20397;-61
2023/01/16 05:39:02;;;;;;;6.60;5.80;;;;;;;;;;5049536;22;20064;-67
2023/01/16 05:41:28;;;;;;;7.50;6.13;;;;;;;;;;5049445;23;20456;-61
2023/01/16 05:43:53;;;;;;;5.85;5.32;;;;;;;;;;5065987;23;20069;-67
2023/01/16 05:46:18;;;;;;;6.88;6.20;;;;;;;;;;5036377;28;20515;-67
2023/01/16 05:48:44;;;;;;;7.60;5.55;;;;;;;;;;5036323;28;20033;-67
2023/01/16 05:51:09;;;;;;;6.72;5.43;;;;;;;;;;5036286;28;20393;-67
2023/01/16 05:53:34;;;;;;;7.13;6.03;;;;;;;;;;5036312;28;20056;-67
2023/01/16 05:56:05;;;;;;;7.78;6.60;;;;;;;;;;5036504;28;20051;-61
2023/01/16 05:58:30;;;;;;;11.02;7.53;;;;;;;;;;5036163;28;20478;-61
2023/01/16 06:00:56;;;;;;;9.90;6.97;;;;;;;;;;5036363;28;20095;-61
2023/01/16 06:03:21;;;;;;;6.43;5.78;;;;;;;;;;5035060;28;20033;-61
2023/01/16 06:05:46;;;;;;;7.28;5.97;;;;;;;;;;5036581;28;20030;-61
2023/01/16 06:08:12;;;;;;;7.20;6.20;;;;;;;;;;5035961;28;20401;-61
2023/01/16 06:10:37;;;;;;;9.43;7.05;;;;;;;;;;5034962;28;20091;-62
2023/01/16 06:13:03;;;;;;;9.45;7.55;;;;;;;;;;5035933;28;20048;-61
2023/01/16 06:15:28;;;;;;;8.25;6.95;;;;;;;;;;5035882;28;20397;-61
2023/01/16 06:17:55;;;;;;;8.63;7.72;;;;;;;;;;5036101;28;20045;-60
2023/01/16 06:20:20;;;;;;;14.52;10.43;;;;;;;;;;5035754;28;20044;-61
2023/01/16 06:22:46;;;;;;;13.40;9.98;;;;;;;;;;5035651;28;20033;-61
2023/01/16 06:25:11;;;;;;;10.13;8.35;;;;;;;;;;5035677;28;20396;-61
2023/01/16 06:27:37;;;;;;;13.35;10.88;;;;;;;;;;5035684;28;20076;-61
2023/01/16 06:30:04;;;;;;;31.80;19.17;;;;;;;;;;5035913;28;20034;-61
2023/01/16 06:32:29;;;;;;;16.75;11.27;;;;;;;;;;5034081;28;20029;-61
2023/01/16 06:34:54;;;;;;;11.48;8.85;;;;;;;;;;5035457;28;20053;-61
2023/01/16 06:37:19;;;;;;;12.82;9.00;;;;;;;;;;5035749;28;20048;-61
2023/01/16 06:39:45;;;;;;;7.45;6.70;;;;;;;;;;5035410;28;20374;-61
2023/01/16 06:42:10;;;;;;;8.32;7.05;;;;;;;;;;5034021;28;20038;-61
2023/01/16 06:44:35;;;;;;;9.57;8.55;;;;;;;;;;5035280;28;20053;-61
2023/01/16 06:47:01;;;;;;;15.93;10.65;;;;;;;;;;5034006;28;20061;-61
2023/01/16 06:49:27;;;;;;;14.60;10.48;;;;;;;;;;5035250;28;20117;-61
2023/01/16 06:51:52;;;;;;;19.80;12.88;;;;;;;;;;5035220;28;20396;-60
2023/01/16 06:54:17;;;;;;;17.88;12.55;;;;;;;;;;5035191;28;20034;-61
2023/01/16 06:56:43;;;;;;;13.32;8.75;;;;;;;;;;5035354;28;20091;-61
2023/01/16 06:59:09;;;;;;;10.80;8.15;;;;;;;;;;5035010;28;20072;-61
2023/01/16 07:01:34;;;;;;;9.82;7.47;;;;;;;;;;5035181;28;20053;-61
2023/01/16 07:04:00;;;;;;;8.80;6.85;;;;;;;;;;5034072;28;20079;-61
2023/01/16 07:06:25;;;;;;;8.85;6.72;;;;;;;;;;5034904;28;20034;-61
2023/01/16 07:08:51;;;;;;;28.90;17.58;;;;;;;;;;5033995;28;20037;-61
2023/01/16 07:11:17;;;;;;;16.73;11.38;;;;;;;;;;5035099;28;20021;-61
2023/01/16 07:13:42;;;;;;;15.82;11.48;;;;;;;;;;5034743;28;20049;-61
2023/01/16 07:24:24;;;;;;;8.25;6.70;;;;;;;;;;5034788;28;20417;-61
2023/01/16 07:26:57;;;;;;;13.70;10.18;;;;;;;;;;5034516;28;20469;-61
2023/01/16 07:29:22;;;;;;;18.15;11.15;;;;;;;;;;5035249;28;20436;-61
2023/01/16 07:31:48;;;;;;;13.95;10.55;;;;;;;;;;5034420;28;20042;-61
2023/01/16 07:34:13;;;;;;;14.10;10.18;;;;;;;;;;5033169;28;20050;-61
2023/01/16 07:36:38;;;;;;;13.75;9.27;;;;;;;;;;5034295;28;20045;-62
2023/01/16 07:39:03;;;;;;;11.73;8.75;;;;;;;;;;5034579;28;20086;-61
2023/01/16 07:41:29;;;;;;;13.02;9.02;;;;;;;;;;5032861;28;20075;-61
2023/01/16 07:43:54;;;;;;;12.85;8.90;;;;;;;;;;5032339;28;20040;-61
2023/01/16 07:46:19;;;;;;;13.25;9.18;;;;;;;;;;5034112;28;20029;-61
2023/01/16 07:48:44;;;;;;;16.02;9.93;;;;;;;;;;5034075;28;20026;-61
2023/01/16 07:51:10;;;;;;;18.17;10.73;;;;;;;;;;5034366;28;20045;-61
2023/01/16 07:53:35;;;;;;;18.83;11.13;;;;;;;;;;5032863;28;20103;-61
2023/01/16 07:56:01;;;;;;;18.65;11.68;;;;;;;;;;5034038;28;20043;-61
2023/01/16 07:58:26;;;;;;;18.33;11.75;;;;;;;;;;5033950;28;20041;-61
2023/01/16 08:00:53;;;;;;;15.48;10.80;;;;;;;;;;5034229;28;20117;-61
2023/01/16 08:03:18;;;;;;;15.40;10.68;;;;;;;;;;5033780;28;20054;-61
2023/01/16 08:05:44;;;;;;;22.08;12.40;;;;;;;;;;5032963;28;20048;-61
2023/01/16 08:08:10;;;;;;;19.55;12.57;;;;;;;;;;5033839;28;20370;-62
2023/01/16 08:10:35;;;;;;;17.30;10.93;;;;;;;;;;5033762;28;20060;-61
2023/01/16 08:13:01;;;;;;;14.27;9.43;;;;;;;;;;5032588;28;20037;-61
2023/01/16 08:15:26;;;;;;;12.88;9.05;;;;;;;;;;5033703;28;20045;-61
2023/01/16 08:17:53;;;;;;;12.38;8.60;;;;;;;;;;5033549;28;20053;-61
2023/01/16 08:20:18;;;;;;;10.98;8.30;;;;;;;;;;5033625;28;20041;-61
2023/01/16 08:22:44;;;;;;;7.88;6.40;;;;;;;;;;5032978;28;20091;-62
2023/01/16 08:25:10;;;;;;;6.82;5.72;;;;;;;;;;5033650;28;20037;-61
2023/01/16 08:27:35;;;;;;;8.18;5.53;;;;;;;;;;5033562;28;20028;-61
2023/01/16 08:30:01;;;;;;;7.75;5.40;;;;;;;;;;5033528;28;20045;-61
2023/01/16 08:32:26;;;;;;;4.75;4.13;;;;;;;;;;5033840;28;20049;-61
2023/01/16 08:34:52;;;;;;;7.15;5.50;;;;;;;;;;5032331;28;20044;-61
2023/01/16 08:37:17;;;;;;;5.38;4.30;;;;;;;;;;5033485;28;20037;-61
2023/01/16 08:39:42;;;;;;;5.70;4.40;;;;;;;;;;5033757;28;20037;-61
2023/01/16 08:53:04;;;;;;;7.60;6.72;;;;;;;;;;5033600;28;20041;-61
2023/01/16 08:55:30;;;;;;;7.05;6.35;;;;;;;;;;5033871;28;20461;-62
2023/01/16 08:57:58;;;;;;;7.03;6.30;;;;;;;;;;5037360;28;20045;-61
2023/01/16 09:00:24;;;;;;;9.02;8.07;;;;;;;;;;5037257;28;20416;-61
2023/01/16 09:02:49;;;;;;;6.57;5.88;;;;;;;;;;5037197;28;20041;-61
2023/01/16 09:05:14;;;;;;;5.35;4.80;;;;;;;;;;5037137;28;20104;-61
2023/01/16 09:07:40;;;;;;;6.80;6.18;;;;;;;;;;5037409;28;20033;-61
2023/01/16 09:10:05;;;;;;;5.18;4.68;;;;;;;;;;5035941;28;20048;-61
2023/01/16 09:15:14;;;;;;;9.43;7.30;;;;;;;;;;5037537;28;20462;-61
2023/01/16 09:17:39;;;;;;;16.13;10.75;;;;;;;;;;5035730;28;20046;-61
2023/01/16 09:20:05;;;;;;;7.30;6.60;;;;;;;;;;5037182;28;20044;-61
2023/01/16 09:22:30;;;;;;;8.00;7.20;;;;;;;;;;5037068;28;20420;-61
2023/01/16 09:24:56;;;;;;;9.07;7.88;;;;;;;;;;5036823;28;20029;-61
2023/01/16 09:27:22;;;;;;;9.93;7.93;;;;;;;;;;5037332;28;20030;-62
2023/01/16 09:29:48;;;;;;;9.95;8.30;;;;;;;;;;5036757;28;20041;-61
2023/01/16 09:32:13;;;;;;;9.20;7.32;;;;;;;;;;5037001;28;20045;-61
2023/01/16 09:34:39;;;;;;;11.63;8.15;;;;;;;;;;5036710;28;20079;-61
2023/01/16 09:37:04;;;;;;;8.82;6.97;;;;;;;;;;5036853;28;20037;-61
2023/01/16 09:39:30;;;;;;;10.48;7.40;;;;;;;;;;5036565;28;20517;-61
2023/01/16 09:44:50;;;;;;;7.53;6.28;;;;;;;;;;5036445;28;20046;-61
2023/01/16 09:47:16;;;;;;;7.95;5.50;;;;;;;;;;5036409;28;20043;-61
2023/01/16 09:49:47;;;;;;;6.20;5.18;;;;;;;;;;5036676;28;20440;-62
2023/01/16 10:00:32;;;;;;;5.22;4.55;;;;;;;;;;5036415;28;20034;-62
2023/01/16 10:02:57;;;;;;;8.10;6.40;;;;;;;;;;5036046;28;20053;-62
2023/01/16 10:05:26;;;;;;;4.45;4.05;;;;;;;;;;5036375;28;20037;-62
2023/01/16 10:07:55;;;;;;;10.35;7.60;;;;;;;;;;5034406;28;20045;-61
2023/01/16 10:10:29;;;;;;;17.65;14.55;;;;;;;;;;5036304;28;20069;-61
2023/01/16 10:13:03;;;;;;;21.33;13.95;;;;;;;;;;5035962;28;20042;-61
2023/01/16 10:15:36;;;;;;;12.90;10.15;;;;;;;;;;5036187;28;20072;-61
2023/01/16 10:18:04;;;;;;;17.25;12.60;;;;;;;;;;5035824;28;20046;-62
2023/01/16 10:20:29;;;;;;;13.15;10.27;;;;;;;;;;5035790;28;20044;-62
2023/01/16 10:23:13;;;;;;;23.52;17.63;;;;;;;;;;5034399;28;20473;-61
2023/01/16 10:25:44;;;;;;;9.93;7.55;;;;;;;;;;5035977;28;20462;-61
2023/01/16 10:28:16;;;;;;;15.18;11.27;;;;;;;;;;5035964;28;20050;-62
2023/01/16 10:30:44;;;;;;;7.63;6.78;;;;;;;;;;5035897;28;20041;-62
2023/01/16 10:35:42;;;;;;;2.85;2.65;;;;;;;;;;5050229;22;20248;-67
2023/01/16 10:38:34;;;;;;;5.28;4.60;;;;;;;;;;5049247;23;20128;-67
2023/01/16 10:41:00;;;;;;;5.45;4.70;;;;;;;;;;5034246;28;20038;-67
2023/01/16 10:49:25;;;;;;;10.15;8.45;;;;;;;;;;5035776;28;20474;-67
2023/01/16 10:51:51;;;;;;;12.50;9.00;;;;;;;;;;5035519;28;20412;-67
2023/01/16 10:54:17;;;;;;;9.55;7.28;;;;;;;;;;5035162;28;20038;-67
2023/01/16 10:56:42;;;;;;;19.40;11.50;;;;;;;;;;5035117;28;20124;-67
2023/01/16 10:59:11;;;;;;;18.45;11.40;;;;;;;;;;5035056;28;20443;-67
2023/01/16 11:01:36;;;;;;;17.85;11.93;;;;;;;;;;5035283;28;20504;-67
2023/01/16 11:04:05;;;;;;;8.63;6.32;;;;;;;;;;5033821;28;20034;-68
2023/01/16 11:06:30;;;;;;;10.73;7.60;;;;;;;;;;5034944;28;20091;-67
2023/01/16 11:09:06;;;;;;;11.45;10.05;;;;;;;;;;5035169;28;20045;-67
2023/01/16 11:20:06;;;;;;;7.75;6.95;;;;;;;;;;5034605;28;20041;-67
2023/01/16 11:22:35;;;;;;;6.00;5.40;;;;;;;;;;5034859;28;20385;-67
2023/01/16 11:25:03;;;;;;;9.52;6.60;;;;;;;;;;5035122;28;20111;-68
2023/01/16 11:27:31;;;;;;;8.77;6.03;;;;;;;;;;5034771;28;20037;-67
2023/01/16 11:29:57;;;;;;;9.90;8.05;;;;;;;;;;5034507;28;20026;-68
2023/01/16 11:32:27;;;;;;;6.68;4.35;;;;;;;;;;5034425;28;20052;-67
2023/01/16 11:34:54;;;;;;;7.97;5.13;;;;;;;;;;5033521;28;20041;-67
2023/01/16 11:37:20;;;;;;;5.40;4.80;;;;;;;;;;5034384;28;20045;-67
2023/01/16 11:39:48;;;;;;;4.28;3.80;;;;;;;;;;5033135;28;20055;-67
2023/01/16 11:47:49;;;;;;;2.83;2.08;;;;;;;;;;5034438;28;20039;-67
2023/01/16 11:50:26;;;;;;;2.58;2.40;;;;;;;;;;5032904;28;20037;-67
2023/01/16 11:52:51;;;;;;;2.05;1.60;;;;;;;;;;5034093;28;20073;-67
2023/01/16 11:55:17;;;;;;;3.00;1.90;;;;;;;;;;5032740;28;20127;-67
2023/01/16 11:58:01;;;;;;;2.03;1.80;;;;;;;;;;5034252;28;20033;-67
2023/01/16 12:00:36;;;;;;;1.60;1.50;;;;;;;;;;5032732;28;20116;-67
2023/01/16 12:03:10;;;;;;;1.50;1.38;;;;;;;;;;5034193;28;20041;-67
2023/01/16 12:05:53;;;;;;;3.58;3.28;;;;;;;;;;5034036;28;20477;-67
2023/01/16 12:08:37;;;;;;;12.18;10.95;;;;;;;;;;5032609;28;20080;-67
2023/01/16 12:11:11;;;;;;;8.52;7.70;;;;;;;;;;5034383;28;20534;-67
2023/01/16 12:16:52;;;;;;;4.90;4.35;;;;;;;;;;5034257;28;20033;-67
2023/01/16 12:19:32;;;;;;;7.45;6.75;;;;;;;;;;5032857;28;20473;-67
2023/01/16 12:22:07;;;;;;;2.15;1.95;;;;;;;;;;5033609;28;20046;-67
2023/01/16 12:24:38;;;;;;;4.70;4.30;;;;;;;;;;5032397;28;20481;-67
2023/01/16 12:27:23;;;;;;;2.83;2.53;;;;;;;;;;5032685;28;20381;-67
2023/01/16 12:30:00;;;;;;;2.60;2.40;;;;;;;;;;5033378;28;20037;-67
2023/01/16 12:32:43;;;;;;;8.50;7.25;;;;;;;;;;5032301;28;20549;-67
2023/01/16 12:35:23;;;;;;;5.30;4.40;;;;;;;;;;5033814;28;20135;-67
2023/01/16 12:37:50;;;;;;;5.68;5.18;;;;;;;;;;5033664;28;20124;-67
2023/01/16 12:40:21;;;;;;;4.22;3.63;;;;;;;;;;5033447;28;20048;-67
2023/01/16 12:45:30;;;;;;;2.67;2.42;;;;;;;;;;5033697;28;20041;-67
2023/01/16 12:48:02;;;;;;;2.80;2.60;;;;;;;;;;5033741;28;20038;-67
2023/01/16 12:50:46;;;;;;;3.83;2.92;;;;;;;;;;5032273;28;20474;-67
2023/01/16 12:53:22;;;;;;;6.38;5.10;;;;;;;;;;5033649;28;20042;-67
2023/01/16 12:56:09;;;;;;;7.20;5.30;;;;;;;;;;5033853;28;20037;-67
2023/01/16 12:58:40;;;;;;;9.52;5.60;;;;;;;;;;5033592;28;20516;-67
2023/01/16 13:01:18;;;;;;;5.00;4.20;;;;;;;;;;5033360;28;20084;-67
2023/01/16 13:03:57;;;;;;;4.25;3.88;;;;;;;;;;5033520;28;20038;-67
2023/01/16 13:06:32;;;;;;;3.60;3.30;;;;;;;;;;5033547;28;20389;-67
2023/01/16 13:09:03;;;;;;;4.60;3.55;;;;;;;;;;5033207;28;20125;-67
2023/01/16 13:14:18;;;;;;;6.00;5.20;;;;;;;;;;5032392;28;20036;-67
2023/01/16 13:16:51;;;;;;;4.57;4.03;;;;;;;;;;5033449;28;20068;-67
2023/01/16 13:19:24;;;;;;;5.38;4.88;;;;;;;;;;5032278;28;20076;-67
2023/01/16 13:22:03;;;;;;;6.68;6.05;;;;;;;;;;5033310;28;20068;-67
2023/01/16 13:24:49;;;;;;;6.65;5.20;;;;;;;;;;5031819;28;20132;-67
2023/01/16 13:27:16;;;;;;;6.38;5.00;;;;;;;;;;5031043;28;20069;-67
2023/01/16 13:29:54;;;;;;;6.20;5.60;;;;;;;;;;5033554;28;20041;-67
2023/01/16 13:32:24;;;;;;;6.22;5.63;;;;;;;;;;5033540;28;20046;-67
2023/01/16 13:34:52;;;;;;;5.32;4.82;;;;;;;;;;5033295;28;20092;-67
2023/01/16 13:37:25;;;;;;;9.77;7.70;;;;;;;;;;5031849;28;20062;-67
2023/01/16 13:39:51;;;;;;;13.45;10.40;;;;;;;;;;5032851;28;20083;-67
2023/01/16 13:42:17;;;;;;;12.27;9.45;;;;;;;;;;5034478;28;20042;-67
2023/01/16 13:47:35;;;;;;;25.85;15.57;;;;;;;;;;5036419;28;20053;-67
2023/01/16 13:50:15;;;;;;;15.35;10.90;;;;;;;;;;5035162;28;20060;-67
2023/01/16 13:52:41;;;;;;;16.85;11.20;;;;;;;;;;5036338;28;20033;-67
2023/01/16 13:55:17;;;;;;;101.22;76.53;;;;;;;;;;5036335;28;20033;-67
2023/01/16 13:57:46;;;;;;;51.60;35.25;;;;;;;;;;5035019;28;20519;-67
2023/01/16 14:00:12;;;;;;;32.03;28.80;;;;;;;;;;5035346;28;20037;-67
2023/01/16 14:02:59;;;;;;;25.98;23.23;;;;;;;;;;5036105;28;20041;-67
2023/01/16 14:05:37;;;;;;;33.63;30.10;;;;;;;;;;5035704;28;20124;-67
2023/01/16 14:11:23;;;;;;;18.88;16.98;;;;;;;;;;5036307;28;20033;-67
2023/01/16 14:13:49;;;;;;;15.13;13.05;;;;;;;;;;5036241;28;20049;-67
2023/01/16 14:16:32;;;;;;;12.98;11.57;;;;;;;;;;5036535;28;20044;-67
2023/01/16 14:19:18;;;;;;;17.65;12.45;;;;;;;;;;5035845;28;20088;-67
2023/01/16 14:24:00;;;;;;;15.57;12.77;;;;;;;;;;5036007;28;20474;-68
2023/01/16 14:24:47;;;;;;;21.17;17.50;;;;;;;;;;5034508;28;20040;-68
2023/01/16 14:27:17;;;;;;;18.42;14.20;;;;;;;;;;5036287;28;20048;-67
2023/01/16 14:29:49;;;;;;;22.15;16.60;;;;;;;;;;5035070;28;20041;-67
2023/01/16 14:32:14;;;;;;;17.08;12.13;;;;;;;;;;5035942;28;20116;-67
2023/01/16 14:34:57;;;;;;;13.00;11.70;;;;;;;;;;5035804;28;20071;-67
2023/01/16 14:37:25;;;;;;;19.20;15.35;;;;;;;;;;5035880;28;20053;-67
2023/01/16 14:39:52;;;;;;;14.85;13.35;;;;;;;;;;5034248;28;20132;-67
2023/01/16 14:56:33;;;;;;;13.68;10.85;;;;;;;;;;5035116;28;20041;-67
2023/01/16 14:59:04;;;;;;;161.45;121.88;;;;;;;;;;5035118;28;20039;-67
2023/01/16 15:04:21;;;;;;;14.48;12.85;;;;;;;;;;5035250;28;20497;-67
2023/01/16 15:06:50;;;;;;;14.20;11.57;;;;;;;;;;5034961;28;20034;-67
2023/01/16 15:09:17;;;;;;;21.88;15.68;;;;;;;;;;5033707;28;20102;-67
2023/01/16 15:11:51;;;;;;;20.27;14.23;;;;;;;;;;5034881;28;20033;-67
2023/01/16 15:14:26;;;;;;;15.85;12.60;;;;;;;;;;5035107;28;20370;-67
2023/01/16 15:22:41;;;;;;;22.73;16.65;;;;;;;;;;5034848;28;20065;-69
2023/01/16 15:25:20;;;;;;;23.80;16.55;;;;;;;;;;5034642;28;20064;-68
2023/01/16 15:27:48;;;;;;;12.88;10.15;;;;;;;;;;5034794;28;20045;-67
2023/01/16 15:30:17;;;;;;;140.05;83.05;;;;;;;;;;5069763;23;20069;-67
2023/01/16 15:35:54;;;;;;;23.75;15.25;;;;;;;;;;5050467;23;20060;-67
2023/01/16 15:38:19;;;;;;;58.92;36.10;;;;;;;;;;5054515;28;20033;-67
2023/01/16 15:40:49;;;;;;;28.40;20.95;;;;;;;;;;5054173;28;20477;-67
2023/01/16 15:48:58;;;;;;;22.42;14.60;;;;;;;;;;5054634;28;20029;-69
2023/01/16 15:51:23;;;;;;;38.25;18.52;;;;;;;;;;5054039;28;20041;-67
2023/01/16 15:53:53;;;;;;;12.57;9.10;;;;;;;;;;5054577;28;20033;-67
2023/01/16 15:56:24;;;;;;;19.63;13.57;;;;;;;;;;5053993;28;20040;-68
2023/01/16 15:58:51;;;;;;;18.92;13.30;;;;;;;;;;5054202;28;20067;-68
2023/01/16 16:01:24;;;;;;;10.90;9.02;;;;;;;;;;5053859;28;20080;-67
2023/01/16 16:03:49;;;;;;;8.50;7.50;;;;;;;;;;5054251;28;20041;-67
2023/01/16 16:06:16;;;;;;;21.48;14.82;;;;;;;;;;5053468;28;20033;-67
2023/01/16 16:08:44;;;;;;;8.90;7.22;;;;;;;;;;5054032;28;20041;-67
2023/01/16 16:20:19;;;;;;;11.80;9.27;;;;;;;;;;5053851;28;20044;-69
2023/01/16 16:22:47;;;;;;;19.25;13.68;;;;;;;;;;5054046;28;20381;-68
2023/01/16 16:25:37;;;;;;;15.75;11.32;;;;;;;;;;5036072;28;20453;-68
2023/01/16 16:28:16;;;;;;;14.00;8.88;;;;;;;;;;5040882;28;20541;-68
2023/01/16 16:30:41;;;;;;;12.65;9.50;;;;;;;;;;5053751;28;20032;-68
2023/01/16 16:33:14;;;;;;;12.80;9.13;;;;;;;;;;5053458;28;20427;-67
2023/01/16 16:35:39;;;;;;;10.00;7.78;;;;;;;;;;5035875;28;20048;-66
2023/01/16 16:38:16;;;;;;;9.77;7.97;;;;;;;;;;5053431;28;20396;-66